sensor_id;sensor_type;location;lat;lon;timestamp;pressure;altitude;pressure_sealevel;temperature;humidity
48267;BME280;34088;52.232;5.196;2024-01-30T00:00:00;102615.19;;;8.51;100.00
48267;BME280;34088;52.232;5.196;2024-01-30T00:02:25;102618.66;;;8.50;100.00
48267;BME280;34088;52.232;5.196;2024-01-30T00:04:51;102612.63;;;8.54;100.00
48267;BME280;34088;52.232;5.196;2024-01-30T00:07:16;102606.59;;;8.52;100.00
48267;BME280;34088;52.232;5.196;2024-01-30T00:09:41;102603.13;;;8.47;100.00
48267;BME280;34088;52.232;5.196;2024-01-30T00:12:07;102606.59;;;8.50;100.00
48267;BME280;34088;52.232;5.196;2024-01-30T00:14:32;102610.88;;;8.47;100.00
48267;BME280;34088;52.232;5.196;2024-01-30T00:16:57;102610.03;;;8.43;100.00
48267;BME280;34088;52.232;5.196;2024-01-30T00:32:54;102605.69;;;8.29;100.00
48267;BME280;34088;52.232;5.196;2024-01-30T00:35:19;102611.69;;;8.28;100.00
48267;BME280;34088;52.232;5.196;2024-01-30T00:37:45;102606.50;;;8.25;100.00
48267;BME280;34088;52.232;5.196;2024-01-30T00:40:10;102606.50;;;8.25;100.00
48267;BME280;34088;52.232;5.196;2024-01-30T00:42:43;102602.22;;;8.22;100.00
48267;BME280;34088;52.232;5.196;2024-01-30T00:45:15;102606.53;;;8.22;100.00
48267;BME280;34088;52.232;5.196;2024-01-30T00:47:42;102603.09;;;8.24;100.00
48267;BME280;34088;52.232;5.196;2024-01-30T00:50:07;102601.34;;;8.25;100.00
48267;BME280;34088;52.232;5.196;2024-01-30T00:52:32;102609.09;;;8.25;100.00
48267;BME280;34088;52.232;5.196;2024-01-30T00:54:58;102603.97;;;8.29;100.00
48267;BME280;34088;52.232;5.196;2024-01-30T00:57:24;102600.53;;;8.29;100.00
48267;BME280;34088;52.232;5.196;2024-01-30T00:59:49;102603.13;;;8.32;100.00
48267;BME280;34088;52.232;5.196;2024-01-30T01:02:14;102597.97;;;8.38;100.00
48267;BME280;34088;52.232;5.196;2024-01-30T01:04:42;102597.97;;;8.38;100.00
48267;BME280;34088;52.232;5.196;2024-01-30T01:07:07;102599.69;;;8.39;100.00
48267;BME280;34088;52.232;5.196;2024-01-30T01:09:33;102586.78;;;8.37;100.00
48267;BME280;34088;52.232;5.196;2024-01-30T01:11:58;102581.63;;;8.37;100.00
48267;BME280;34088;52.232;5.196;2024-01-30T01:14:23;102573.00;;;8.38;100.00
48267;BME280;34088;52.232;5.196;2024-01-30T01:16:49;102576.47;;;8.39;100.00
48267;BME280;34088;52.232;5.196;2024-01-30T01:19:14;102565.28;;;8.38;100.00
48267;BME280;34088;52.232;5.196;2024-01-30T01:21:39;102564.41;;;8.41;100.00
48267;BME280;34088;52.232;5.196;2024-01-30T01:24:05;102574.75;;;8.41;100.00
48267;BME280;34088;52.232;5.196;2024-01-30T01:26:30;102585.06;;;8.45;100.00
48267;BME280;34088;52.232;5.196;2024-01-30T01:28:55;102573.03;;;8.44;100.00
48267;BME280;34088;52.232;5.196;2024-01-30T01:31:21;102580.78;;;8.46;100.00
48267;BME280;34088;52.232;5.196;2024-01-30T01:33:49;102583.34;;;8.43;100.00
48267;BME280;34088;52.232;5.196;2024-01-30T01:36:15;102579.06;;;8.45;100.00
48267;BME280;34088;52.232;5.196;2024-01-30T01:38:40;102579.94;;;8.50;100.00
48267;BME280;34088;52.232;5.196;2024-01-30T01:41:05;102583.34;;;8.46;100.00
48267;BME280;34088;52.232;5.196;2024-01-30T01:43:31;102579.06;;;8.49;100.00
48267;BME280;34088;52.232;5.196;2024-01-30T01:45:56;102587.66;;;8.51;100.00
48267;BME280;34088;52.232;5.196;2024-01-30T01:48:21;102584.22;;;8.49;100.00
48267;BME280;34088;52.232;5.196;2024-01-30T01:50:47;102584.22;;;8.48;100.00
48267;BME280;34088;52.232;5.196;2024-01-30T01:53:12;102580.75;;;8.43;100.00
48267;BME280;34088;52.232;5.196;2024-01-30T01:55:38;102570.47;;;8.46;100.00
48267;BME280;34088;52.232;5.196;2024-01-30T01:58:04;102570.44;;;8.43;100.00
48267;BME280;34088;52.232;5.196;2024-01-30T02:00:29;102568.72;;;8.39;100.00
48267;BME280;34088;52.232;5.196;2024-01-30T02:02:56;102580.78;;;8.40;100.00
48267;BME280;34088;52.232;5.196;2024-01-30T02:05:22;102560.97;;;8.42;100.00
48267;BME280;34088;52.232;5.196;2024-01-30T02:07:47;102565.28;;;8.43;100.00
48267;BME280;34088;52.232;5.196;2024-01-30T02:10:13;102579.03;;;8.46;100.00
48267;BME280;34088;52.232;5.196;2024-01-30T02:12:38;102568.72;;;8.42;100.00
48267;BME280;34088;52.232;5.196;2024-01-30T02:15:04;102583.34;;;8.40;100.00
48267;BME280;34088;52.232;5.196;2024-01-30T02:17:30;102568.72;;;8.39;100.00
48267;BME280;34088;52.232;5.196;2024-01-30T02:19:55;102547.22;;;8.40;100.00
48267;BME280;34088;52.232;5.196;2024-01-30T02:22:21;102560.09;;;8.37;100.00
48267;BME280;34088;52.232;5.196;2024-01-30T02:24:47;102573.00;;;8.38;100.00
48267;BME280;34088;52.232;5.196;2024-01-30T02:27:12;102559.25;;;8.35;100.00
48267;BME280;34088;52.232;5.196;2024-01-30T02:29:37;102564.41;;;8.32;100.00
48267;BME280;34088;52.232;5.196;2024-01-30T02:32:03;102568.72;;;8.27;100.00
48267;BME280;34088;52.232;5.196;2024-01-30T02:34:28;102581.59;;;8.30;100.00
48267;BME280;34088;52.232;5.196;2024-01-30T02:36:53;102568.69;;;8.28;100.00
48267;BME280;34088;52.232;5.196;2024-01-30T02:39:19;102564.38;;;8.27;100.00
48267;BME280;34088;52.232;5.196;2024-01-30T02:41:44;102550.63;;;8.24;100.00
48267;BME280;34088;52.232;5.196;2024-01-30T02:44:10;102537.72;;;8.22;100.00
48267;BME280;34088;52.232;5.196;2024-01-30T02:46:35;102529.97;;;8.24;100.00
48267;BME280;34088;52.232;5.196;2024-01-30T02:49:01;102539.47;;;8.32;100.00
48267;BME280;34088;52.232;5.196;2024-01-30T02:51:26;102549.81;;;8.35;100.00
48267;BME280;34088;52.232;5.196;2024-01-30T02:53:52;102530.88;;;8.35;100.00
48267;BME280;34088;52.232;5.196;2024-01-30T02:56:17;102537.75;;;8.33;100.00
48267;BME280;34088;52.232;5.196;2024-01-30T02:58:43;102535.16;;;8.33;100.00
48267;BME280;34088;52.232;5.196;2024-01-30T03:01:08;102533.47;;;8.38;100.00
48267;BME280;34088;52.232;5.196;2024-01-30T03:03:33;102531.75;;;8.40;100.00
48267;BME280;34088;52.232;5.196;2024-01-30T03:06:01;102534.31;;;8.34;100.00
48267;BME280;34088;52.232;5.196;2024-01-30T03:08:27;102532.56;;;8.34;100.00
48267;BME280;34088;52.232;5.196;2024-01-30T03:10:53;102526.56;;;8.35;100.00
48267;BME280;34088;52.232;5.196;2024-01-30T03:13:18;102539.47;;;8.34;100.00
48267;BME280;34088;52.232;5.196;2024-01-30T03:15:43;102536.88;;;8.32;100.00
48267;BME280;34088;52.232;5.196;2024-01-30T03:18:08;102533.44;;;8.33;100.00
48267;BME280;34088;52.232;5.196;2024-01-30T03:20:34;102526.53;;;8.26;100.00
48267;BME280;34088;52.232;5.196;2024-01-30T03:23:00;102519.69;;;8.25;100.00
48267;BME280;34088;52.232;5.196;2024-01-30T03:25:25;102517.94;;;8.23;100.00
48267;BME280;34088;52.232;5.196;2024-01-30T03:27:50;102510.22;;;8.24;100.00
48267;BME280;34088;52.232;5.196;2024-01-30T03:30:16;102512.75;;;8.20;100.00
48267;BME280;34088;52.232;5.196;2024-01-30T03:32:41;102508.47;;;8.25;100.00
48267;BME280;34088;52.232;5.196;2024-01-30T03:35:07;102503.34;;;8.28;100.00
48267;BME280;34088;52.232;5.196;2024-01-30T03:37:32;102499.03;;;8.27;100.00
48267;BME280;34088;52.232;5.196;2024-01-30T03:39:57;102497.31;;;8.23;100.00
48267;BME280;34088;52.232;5.196;2024-01-30T03:42:23;102497.31;;;8.23;100.00
48267;BME280;34088;52.232;5.196;2024-01-30T03:44:48;102492.09;;;8.15;100.00
48267;BME280;34088;52.232;5.196;2024-01-30T03:47:14;102487.84;;;8.22;100.00
48267;BME280;34088;52.232;5.196;2024-01-30T03:49:39;102488.72;;;8.21;100.00
48267;BME280;34088;52.232;5.196;2024-01-30T03:52:05;102494.75;;;8.24;100.00
48267;BME280;34088;52.232;5.196;2024-01-30T03:54:30;102504.22;;;8.27;100.00
48267;BME280;34088;52.232;5.196;2024-01-30T03:56:55;102499.91;;;8.32;100.00
48267;BME280;34088;52.232;5.196;2024-01-30T03:59:21;102502.47;;;8.33;100.00
48267;BME280;34088;52.232;5.196;2024-01-30T04:01:50;102499.03;;;8.28;100.00
48267;BME280;34088;52.232;5.196;2024-01-30T04:04:15;102505.91;;;8.31;100.00
48267;BME280;34088;52.232;5.196;2024-01-30T04:06:41;102502.50;;;8.38;100.00
48267;BME280;34088;52.232;5.196;2024-01-30T04:09:06;102513.66;;;8.37;100.00
48267;BME280;34088;52.232;5.196;2024-01-30T04:11:31;102506.78;;;8.33;100.00
48267;BME280;34088;52.232;5.196;2024-01-30T04:13:56;102507.66;;;8.32;100.00
48267;BME280;34088;52.232;5.196;2024-01-30T04:16:22;102502.47;;;8.35;100.00
48267;BME280;34088;52.232;5.196;2024-01-30T04:18:48;102493.88;;;8.31;100.00
48267;BME280;34088;52.232;5.196;2024-01-30T04:21:13;102500.78;;;8.35;100.00
48267;BME280;34088;52.232;5.196;2024-01-30T04:23:40;102491.31;;;8.39;100.00
48267;BME280;34088;52.232;5.196;2024-01-30T04:26:05;102498.19;;;8.40;100.00
48267;BME280;34088;52.232;5.196;2024-01-30T04:28:30;102483.56;;;8.36;100.00
48267;BME280;34088;52.232;5.196;2024-01-30T04:30:56;102490.44;;;8.38;100.00
48267;BME280;34088;52.232;5.196;2024-01-30T04:33:21;102479.28;;;8.38;100.00
48267;BME280;34088;52.232;5.196;2024-01-30T04:35:46;102481.00;;;8.39;100.00
48267;BME280;34088;52.232;5.196;2024-01-30T04:38:11;102482.72;;;8.35;100.00
48267;BME280;34088;52.232;5.196;2024-01-30T04:40:37;102470.66;;;8.45;100.00
48267;BME280;34088;52.232;5.196;2024-01-30T04:43:02;102474.09;;;8.47;100.00
48267;BME280;34088;52.232;5.196;2024-01-30T04:45:27;102475.81;;;8.46;100.00
48267;BME280;34088;52.232;5.196;2024-01-30T04:47:53;102473.25;;;8.43;100.00
48267;BME280;34088;52.232;5.196;2024-01-30T04:50:18;102471.53;;;8.44;100.00
48267;BME280;34088;52.232;5.196;2024-01-30T04:52:44;102475.84;;;8.45;100.00
48267;BME280;34088;52.232;5.196;2024-01-30T04:55:09;102468.94;;;8.48;100.00
48267;BME280;34088;52.232;5.196;2024-01-30T04:57:34;102479.25;;;8.47;100.00
48267;BME280;34088;52.232;5.196;2024-01-30T04:59:59;102474.97;;;8.44;100.00
48267;BME280;34088;52.232;5.196;2024-01-30T05:02:25;102474.97;;;8.46;100.00
48267;BME280;34088;52.232;5.196;2024-01-30T05:04:50;102470.66;;;8.46;100.00
48267;BME280;34088;52.232;5.196;2024-01-30T05:07:15;102470.66;;;8.45;100.00
48267;BME280;34088;52.232;5.196;2024-01-30T05:09:41;102467.22;;;8.44;100.00
48267;BME280;34088;52.232;5.196;2024-01-30T05:12:07;102462.91;;;8.43;100.00
48267;BME280;34088;52.232;5.196;2024-01-30T05:14:32;102456.91;;;8.46;100.00
48267;BME280;34088;52.232;5.196;2024-01-30T05:16:57;102446.56;;;8.49;100.00
48267;BME280;34088;52.232;5.196;2024-01-30T05:19:22;102471.50;;;8.53;100.00
48267;BME280;34088;52.232;5.196;2024-01-30T05:21:49;102459.47;;;8.50;100.00
48267;BME280;34088;52.232;5.196;2024-01-30T05:24:14;102466.38;;;8.54;100.00
48267;BME280;34088;52.232;5.196;2024-01-30T05:26:39;102468.06;;;8.55;100.00
48267;BME280;34088;52.232;5.196;2024-01-30T05:29:06;102468.94;;;8.59;100.00
48267;BME280;34088;52.232;5.196;2024-01-30T05:31:31;102463.78;;;8.56;100.00
48267;BME280;34088;52.232;5.196;2024-01-30T05:33:57;102461.19;;;8.59;100.00
48267;BME280;34088;52.232;5.196;2024-01-30T05:36:22;102468.94;;;8.60;100.00
48267;BME280;34088;52.232;5.196;2024-01-30T05:38:47;102467.22;;;8.64;100.00
48267;BME280;34088;52.232;5.196;2024-01-30T05:41:13;102469.81;;;8.65;100.00
48267;BME280;34088;52.232;5.196;2024-01-30T05:43:38;102463.75;;;8.65;100.00
48267;BME280;34088;52.232;5.196;2024-01-30T05:46:03;102462.06;;;8.64;100.00
48267;BME280;34088;52.232;5.196;2024-01-30T05:48:29;102456.03;;;8.68;100.00
48267;BME280;34088;52.232;5.196;2024-01-30T05:50:54;102459.47;;;8.59;100.00
48267;BME280;34088;52.232;5.196;2024-01-30T05:53:19;102465.50;;;8.63;100.00
48267;BME280;34088;52.232;5.196;2024-01-30T05:55:45;102472.38;;;8.64;100.00
48267;BME280;34088;52.232;5.196;2024-01-30T05:58:10;102476.69;;;8.68;100.00
48267;BME280;34088;52.232;5.196;2024-01-30T06:00:36;102464.63;;;8.68;100.00
48267;BME280;34088;52.232;5.196;2024-01-30T06:03:02;102464.66;;;8.67;100.00
48267;BME280;34088;52.232;5.196;2024-01-30T06:05:27;102467.22;;;8.70;100.00
48267;BME280;34088;52.232;5.196;2024-01-30T06:07:52;102467.22;;;8.71;100.00
48267;BME280;34088;52.232;5.196;2024-01-30T06:10:18;102468.94;;;8.72;100.00
48267;BME280;34088;52.232;5.196;2024-01-30T06:12:44;102476.66;;;8.72;100.00
48267;BME280;34088;52.232;5.196;2024-01-30T06:15:09;102473.25;;;8.70;100.00
48267;BME280;34088;52.232;5.196;2024-01-30T06:17:35;102470.66;;;8.69;100.00
48267;BME280;34088;52.232;5.196;2024-01-30T06:20:00;102453.44;;;8.68;100.00
48267;BME280;34088;52.232;5.196;2024-01-30T06:22:25;102467.22;;;8.73;100.00
48267;BME280;34088;52.232;5.196;2024-01-30T06:24:51;102468.06;;;8.72;100.00
48267;BME280;34088;52.232;5.196;2024-01-30T06:27:16;102468.91;;;8.77;100.00
48267;BME280;34088;52.232;5.196;2024-01-30T06:29:42;102465.47;;;8.75;100.00
48267;BME280;34088;52.232;5.196;2024-01-30T06:32:08;102461.19;;;8.74;100.00
48267;BME280;34088;52.232;5.196;2024-01-30T06:34:33;102463.75;;;8.77;100.00
48267;BME280;34088;52.232;5.196;2024-01-30T06:36:59;102458.59;;;8.80;100.00
48267;BME280;34088;52.232;5.196;2024-01-30T06:39:24;102474.09;;;8.80;100.00
48267;BME280;34088;52.232;5.196;2024-01-30T06:41:50;102479.25;;;8.80;100.00
48267;BME280;34088;52.232;5.196;2024-01-30T06:44:15;102475.78;;;8.84;100.00
48267;BME280;34088;52.232;5.196;2024-01-30T06:46:40;102478.38;;;8.85;100.00
48267;BME280;34088;52.232;5.196;2024-01-30T06:49:06;102483.53;;;8.91;100.00
48267;BME280;34088;52.232;5.196;2024-01-30T06:51:32;102492.13;;;8.90;100.00
48267;BME280;34088;52.232;5.196;2024-01-30T06:53:57;102486.97;;;8.92;100.00
48267;BME280;34088;52.232;5.196;2024-01-30T06:56:22;102476.66;;;8.86;100.00
48267;BME280;34088;52.232;5.196;2024-01-30T06:58:50;102486.97;;;8.92;100.00
48267;BME280;34088;52.232;5.196;2024-01-30T07:01:15;102483.53;;;8.96;100.00
48267;BME280;34088;52.232;5.196;2024-01-30T07:03:41;102480.06;;;8.98;100.00
48267;BME280;34088;52.232;5.196;2024-01-30T07:06:07;102480.94;;;8.97;100.00
48267;BME280;34088;52.232;5.196;2024-01-30T07:08:32;102481.81;;;8.99;100.00
48267;BME280;34088;52.232;5.196;2024-01-30T07:10:57;102486.94;;;9.10;100.00
48267;BME280;34088;52.232;5.196;2024-01-30T07:13:22;102485.22;;;9.12;100.00
48267;BME280;34088;52.232;5.196;2024-01-30T07:15:48;102485.22;;;9.12;100.00
48267;BME280;34088;52.232;5.196;2024-01-30T07:18:13;102479.19;;;9.16;100.00
48267;BME280;34088;52.232;5.196;2024-01-30T07:20:39;102478.28;;;9.21;100.00
48267;BME280;34088;52.232;5.196;2024-01-30T07:23:11;102485.19;;;9.22;100.00
48267;BME280;34088;52.232;5.196;2024-01-30T07:25:39;102483.44;;;9.29;100.00
48267;BME280;34088;52.232;5.196;2024-01-30T07:28:07;102491.19;;;9.32;100.00
48267;BME280;34088;52.232;5.196;2024-01-30T07:30:32;102488.59;;;9.35;100.00
48267;BME280;34088;52.232;5.196;2024-01-30T07:32:57;102494.63;;;9.37;100.00
48267;BME280;34088;52.232;5.196;2024-01-30T07:35:23;102496.31;;;9.42;100.00
48267;BME280;34088;52.232;5.196;2024-01-30T07:37:48;102501.50;;;9.44;100.00
48267;BME280;34088;52.232;5.196;2024-01-30T07:40:13;102513.53;;;9.51;100.00
48267;BME280;34088;52.232;5.196;2024-01-30T07:42:39;102504.91;;;9.55;100.00
48267;BME280;34088;52.232;5.196;2024-01-30T07:45:04;102510.91;;;9.55;100.00
48267;BME280;34088;52.232;5.196;2024-01-30T07:47:30;102515.19;;;9.62;100.00
48267;BME280;34088;52.232;5.196;2024-01-30T07:49:55;102515.19;;;9.67;100.00
48267;BME280;34088;52.232;5.196;2024-01-30T07:52:21;102518.63;;;9.72;100.00
48267;BME280;34088;52.232;5.196;2024-01-30T07:54:46;102516.88;;;9.73;100.00
48267;BME280;34088;52.232;5.196;2024-01-30T07:57:11;102516.88;;;9.75;100.00
48267;BME280;34088;52.232;5.196;2024-01-30T07:59:36;102515.13;;;9.78;100.00
48267;BME280;34088;52.232;5.196;2024-01-30T08:02:02;102522.00;;;9.82;100.00
48267;BME280;34088;52.232;5.196;2024-01-30T08:04:27;102528.84;;;9.91;100.00
48267;BME280;34088;52.232;5.196;2024-01-30T08:06:52;102528.84;;;9.95;100.00
48267;BME280;34088;52.232;5.196;2024-01-30T08:09:18;102524.50;;;10.03;100.00
48267;BME280;34088;52.232;5.196;2024-01-30T08:11:43;102521.88;;;10.09;100.00
48267;BME280;34088;52.232;5.196;2024-01-30T08:14:08;102522.75;;;10.10;100.00
48267;BME280;34088;52.232;5.196;2024-01-30T08:16:33;102524.44;;;10.15;100.00
48267;BME280;34088;52.232;5.196;2024-01-30T08:18:59;102514.97;;;10.14;100.00
48267;BME280;34088;52.232;5.196;2024-01-30T08:21:24;102516.63;;;10.20;100.00
48267;BME280;34088;52.232;5.196;2024-01-30T08:23:49;102521.78;;;10.27;100.00
48267;BME280;34088;52.232;5.196;2024-01-30T08:26:15;102528.66;;;10.30;100.00
48267;BME280;34088;52.232;5.196;2024-01-30T08:28:40;102521.72;;;10.32;100.00
48267;BME280;34088;52.232;5.196;2024-01-30T08:31:05;102528.59;;;10.40;100.00
48267;BME280;34088;52.232;5.196;2024-01-30T08:33:31;102521.63;;;10.45;100.00
48267;BME280;34088;52.232;5.196;2024-01-30T08:35:56;102526.78;;;10.51;100.00
48267;BME280;34088;52.232;5.196;2024-01-30T08:38:21;102526.72;;;10.57;100.00
48267;BME280;34088;52.232;5.196;2024-01-30T08:40:46;102523.31;;;10.55;100.00
48267;BME280;34088;52.232;5.196;2024-01-30T08:43:12;102536.25;;;10.55;100.00
48267;BME280;34088;52.232;5.196;2024-01-30T08:45:37;102525.84;;;10.61;100.00
48267;BME280;34088;52.232;5.196;2024-01-30T08:48:03;102530.16;;;10.62;100.00
48267;BME280;34088;52.232;5.196;2024-01-30T08:50:28;102526.66;;;10.65;100.00
48267;BME280;34088;52.232;5.196;2024-01-30T08:52:54;102533.56;;;10.67;100.00
48267;BME280;34088;52.232;5.196;2024-01-30T08:55:20;102530.97;;;10.67;100.00
48267;BME280;34088;52.232;5.196;2024-01-30T08:57:45;102529.25;;;10.68;100.00
48267;BME280;34088;52.232;5.196;2024-01-30T09:00:11;102546.47;;;10.72;100.00
48267;BME280;34088;52.232;5.196;2024-01-30T09:02:36;102529.22;;;10.72;100.00
48267;BME280;34088;52.232;5.196;2024-01-30T09:05:02;102530.91;;;10.75;100.00
48267;BME280;34088;52.232;5.196;2024-01-30T09:07:27;102532.69;;;10.70;100.00
48267;BME280;34088;52.232;5.196;2024-01-30T09:09:52;102527.50;;;10.67;100.00
48267;BME280;34088;52.232;5.196;2024-01-30T09:12:18;102537.84;;;10.71;100.00
48267;BME280;34088;52.232;5.196;2024-01-30T09:14:43;102535.31;;;10.65;100.00
48267;BME280;34088;52.232;5.196;2024-01-30T09:17:08;102538.69;;;10.73;100.00
48267;BME280;34088;52.232;5.196;2024-01-30T09:19:34;102544.75;;;10.74;100.00
48267;BME280;34088;52.232;5.196;2024-01-30T09:21:59;102545.63;;;10.70;100.00
48267;BME280;34088;52.232;5.196;2024-01-30T09:24:25;102549.94;;;10.74;100.00
48267;BME280;34088;52.232;5.196;2024-01-30T09:26:51;102551.63;;;10.75;100.00
48267;BME280;34088;52.232;5.196;2024-01-30T09:29:16;102552.47;;;10.75;100.00
48267;BME280;34088;52.232;5.196;2024-01-30T09:31:45;102554.22;;;10.75;100.00
48267;BME280;34088;52.232;5.196;2024-01-30T09:34:11;102553.34;;;10.76;100.00
48267;BME280;34088;52.232;5.196;2024-01-30T09:36:36;102554.25;;;10.72;100.00
48267;BME280;34088;52.232;5.196;2024-01-30T09:39:01;102554.19;;;10.79;100.00
48267;BME280;34088;52.232;5.196;2024-01-30T09:41:27;102557.59;;;10.86;100.00
48267;BME280;34088;52.232;5.196;2024-01-30T09:43:52;102552.41;;;10.84;100.00
48267;BME280;34088;52.232;5.196;2024-01-30T09:46:21;102556.72;;;10.87;100.00
48267;BME280;34088;52.232;5.196;2024-01-30T09:48:47;102566.22;;;10.86;100.00
48267;BME280;34088;52.232;5.196;2024-01-30T09:51:16;102567.03;;;10.93;100.00
48267;BME280;34088;52.232;5.196;2024-01-30T09:53:42;102564.50;;;10.88;100.00
48267;BME280;34088;52.232;5.196;2024-01-30T09:56:08;102561.78;;;10.99;100.00
48267;BME280;34088;52.232;5.196;2024-01-30T09:58:34;102565.22;;;11.04;100.00
48267;BME280;34088;52.232;5.196;2024-01-30T10:00:59;102573.88;;;11.03;99.89
48267;BME280;34088;52.232;5.196;2024-01-30T10:03:24;102572.16;;;11.00;100.00
48267;BME280;34088;52.232;5.196;2024-01-30T10:05:51;102576.41;;;11.04;99.88
48267;BME280;34088;52.232;5.196;2024-01-30T10:08:19;102565.16;;;11.08;100.00
48267;BME280;34088;52.232;5.196;2024-01-30T10:10:48;102567.69;;;11.17;99.78
48267;BME280;34088;52.232;5.196;2024-01-30T10:13:15;102571.03;;;11.28;99.31
48267;BME280;34088;52.232;5.196;2024-01-30T10:15:40;102574.50;;;11.24;98.94
48267;BME280;34088;52.232;5.196;2024-01-30T10:18:06;102572.81;;;11.23;98.89
48267;BME280;34088;52.232;5.196;2024-01-30T10:20:32;102574.50;;;11.26;98.78
48267;BME280;34088;52.232;5.196;2024-01-30T10:22:57;102571.09;;;11.22;98.58
48267;BME280;34088;52.232;5.196;2024-01-30T10:25:23;102571.09;;;11.21;98.35
48267;BME280;34088;52.232;5.196;2024-01-30T10:27:54;102561.63;;;11.18;98.96
48267;BME280;34088;52.232;5.196;2024-01-30T10:30:23;102576.34;;;11.13;99.01
48267;BME280;34088;52.232;5.196;2024-01-30T10:32:49;102584.19;;;11.04;98.44
48267;BME280;34088;52.232;5.196;2024-01-30T10:35:15;102579.06;;;10.98;98.39
48267;BME280;34088;52.232;5.196;2024-01-30T10:37:43;102587.81;;;10.87;98.52
48267;BME280;34088;52.232;5.196;2024-01-30T10:40:09;102597.34;;;10.85;98.09
48267;BME280;34088;52.232;5.196;2024-01-30T10:42:42;102595.59;;;10.85;98.07
48267;BME280;34088;52.232;5.196;2024-01-30T10:45:08;102589.56;;;10.80;97.76
48267;BME280;34088;52.232;5.196;2024-01-30T10:47:36;102599.97;;;10.77;97.78
48267;BME280;34088;52.232;5.196;2024-01-30T10:50:02;102590.59;;;10.63;98.28
48267;BME280;34088;52.232;5.196;2024-01-30T10:52:32;102612.16;;;10.63;98.22
48267;BME280;34088;52.232;5.196;2024-01-30T10:54:58;102613.03;;;10.65;97.96
48267;BME280;34088;52.232;5.196;2024-01-30T10:57:24;102614.72;;;10.66;97.78
48267;BME280;34088;52.232;5.196;2024-01-30T10:59:51;102623.31;;;10.74;97.53
48267;BME280;34088;52.232;5.196;2024-01-30T11:02:18;102621.59;;;10.75;97.01
48267;BME280;34088;52.232;5.196;2024-01-30T11:04:43;102627.69;;;10.66;96.43
48267;BME280;34088;52.232;5.196;2024-01-30T11:07:17;102618.31;;;10.47;96.23
48267;BME280;34088;52.232;5.196;2024-01-30T11:12:27;102620.97;;;10.35;94.33
48267;BME280;34088;52.232;5.196;2024-01-30T11:15:17;102622.69;;;10.36;95.13
48267;BME280;34088;52.232;5.196;2024-01-30T11:17:50;102618.41;;;10.28;94.17
48267;BME280;34088;52.232;5.196;2024-01-30T11:20:29;102631.34;;;10.34;93.82
48267;BME280;34088;52.232;5.196;2024-01-30T11:22:57;102627.91;;;10.30;93.81
48267;BME280;34088;52.232;5.196;2024-01-30T11:25:23;102639.09;;;10.32;93.66
48267;BME280;34088;52.232;5.196;2024-01-30T11:27:50;102635.66;;;10.27;93.36
48267;BME280;34088;52.232;5.196;2024-01-30T11:30:29;102635.69;;;10.20;92.69
48267;BME280;34088;52.232;5.196;2024-01-30T11:33:08;102633.97;;;10.17;91.80
48267;BME280;34088;52.232;5.196;2024-01-30T11:35:35;102637.47;;;10.10;92.27
48267;BME280;34088;52.232;5.196;2024-01-30T11:38:02;102632.28;;;10.13;91.94
48267;BME280;34088;52.232;5.196;2024-01-30T11:40:28;102632.28;;;10.13;91.73
48267;BME280;34088;52.232;5.196;2024-01-30T11:42:55;102640.91;;;10.08;91.82
48267;BME280;34088;52.232;5.196;2024-01-30T11:45:20;102634.03;;;10.05;91.10
48267;BME280;34088;52.232;5.196;2024-01-30T11:47:46;102640.06;;;10.04;91.08
48267;BME280;34088;52.232;5.196;2024-01-30T11:50:11;102650.41;;;10.00;91.99
48267;BME280;34088;52.232;5.196;2024-01-30T11:52:37;102646.13;;;9.88;92.43
48267;BME280;34088;52.232;5.196;2024-01-30T11:55:03;102656.50;;;9.82;93.22
48267;BME280;34088;52.232;5.196;2024-01-30T11:57:29;102650.47;;;9.80;93.47
48267;BME280;34088;52.232;5.196;2024-01-30T11:59:54;102653.94;;;9.78;93.38
48267;BME280;34088;52.232;5.196;2024-01-30T12:02:19;102664.28;;;9.79;93.89
48267;BME280;34088;52.232;5.196;2024-01-30T12:04:44;102647.06;;;9.73;93.99
48267;BME280;34088;52.232;5.196;2024-01-30T12:07:10;102657.41;;;9.56;93.76
48267;BME280;34088;52.232;5.196;2024-01-30T12:09:36;102665.16;;;9.62;94.56
48267;BME280;34088;52.232;5.196;2024-01-30T12:12:01;102670.34;;;9.63;93.99
48267;BME280;34088;52.232;5.196;2024-01-30T12:14:26;102666.91;;;9.60;92.30
48267;BME280;34088;52.232;5.196;2024-01-30T12:16:52;102666.91;;;9.57;93.33
48267;BME280;34088;52.232;5.196;2024-01-30T12:19:24;102658.28;;;9.60;92.97
48267;BME280;34088;52.232;5.196;2024-01-30T12:21:56;102661.72;;;9.52;92.55
48267;BME280;34088;52.232;5.196;2024-01-30T12:24:22;102672.09;;;9.57;92.67
48267;BME280;34088;52.232;5.196;2024-01-30T12:26:48;102662.59;;;9.57;92.94
48267;BME280;34088;52.232;5.196;2024-01-30T12:29:14;102675.53;;;9.61;93.13
48267;BME280;34088;52.232;5.196;2024-01-30T12:31:42;102663.47;;;9.57;93.98
48267;BME280;34088;52.232;5.196;2024-01-30T12:34:07;102664.31;;;9.62;93.67
48267;BME280;34088;52.232;5.196;2024-01-30T12:36:33;102653.97;;;9.60;93.56
48267;BME280;34088;52.232;5.196;2024-01-30T12:38:59;102663.44;;;9.68;94.33
48267;BME280;34088;52.232;5.196;2024-01-30T12:41:25;102667.75;;;9.50;94.05
48267;BME280;34088;52.232;5.196;2024-01-30T12:43:54;102681.56;;;9.55;94.78
48267;BME280;34088;52.232;5.196;2024-01-30T12:46:19;102670.34;;;9.52;94.52
48267;BME280;34088;52.232;5.196;2024-01-30T12:48:44;102682.41;;;9.52;94.57
48267;BME280;34088;52.232;5.196;2024-01-30T12:51:10;102686.72;;;9.53;95.67
48267;BME280;34088;52.232;5.196;2024-01-30T12:53:35;102680.69;;;9.53;95.99
48267;BME280;34088;52.232;5.196;2024-01-30T12:56:00;102681.56;;;9.51;95.71
48267;BME280;34088;52.232;5.196;2024-01-30T12:58:25;102678.97;;;9.48;96.44